Time;durP1;ratioP1;P1;durP2;ratioP2;P2;SDS_P1;SDS_P2;PMS_P1;PMS_P2;Temp;Humidity;BMP_temperature;BMP_pressure;BME280_temperature;BME280_humidity;BME280_pressure;Samples;Min_cycle;Max_cycle;Signal;HPM_P1;HPM_P2
2020/12/25 00:00:39;;;;;;;18.03;16.83;;;;;;;;;;4996530;28;20178;-84
2020/12/25 00:03:15;;;;;;;17.47;16.27;;;;;;;;;;4995468;28;20184;-85
2020/12/25 00:05:46;;;;;;;17.83;16.53;;;;;;;;;;4994991;28;20295;-84
2020/12/25 00:08:15;;;;;;;17.13;15.63;;;;;;;;;;4997220;28;20195;-84
2020/12/25 00:10:44;;;;;;;18.13;16.77;;;;;;;;;;4995638;28;20184;-84
2020/12/25 00:13:16;;;;;;;17.37;16.13;;;;;;;;;;4995157;28;20556;-84
2020/12/25 00:15:46;;;;;;;17.27;16.07;;;;;;;;;;4996288;28;20206;-84
2020/12/25 00:18:15;;;;;;;17.10;15.90;;;;;;;;;;4995335;28;20188;-84
2020/12/25 00:20:45;;;;;;;17.53;16.23;;;;;;;;;;4995123;28;20251;-84
2020/12/25 00:23:19;;;;;;;17.67;15.87;;;;;;;;;;4995143;28;20271;-84
2020/12/25 00:25:53;;;;;;;17.27;15.70;;;;;;;;;;4996150;28;20209;-84
2020/12/25 00:28:23;;;;;;;17.50;16.17;;;;;;;;;;4996669;28;20169;-84
2020/12/25 00:30:49;;;;;;;18.10;16.47;;;;;;;;;;4996794;28;20168;-85
2020/12/25 00:33:17;;;;;;;18.90;17.10;;;;;;;;;;4996314;28;20556;-82
2020/12/25 00:35:44;;;;;;;17.80;16.50;;;;;;;;;;4995790;28;20207;-84
2020/12/25 00:38:11;;;;;;;15.90;14.47;;;;;;;;;;4996130;28;20174;-85
2020/12/25 00:40:44;;;;;;;18.50;16.53;;;;;;;;;;4995751;28;20174;-84
2020/12/25 00:43:12;;;;;;;18.60;17.23;;;;;;;;;;4994623;28;20181;-84
2020/12/25 00:45:39;;;;;;;18.57;17.07;;;;;;;;;;4995780;28;20201;-84
2020/12/25 00:48:07;;;;;;;20.27;18.50;;;;;;;;;;4994555;28;20171;-84
2020/12/25 00:50:35;;;;;;;20.50;18.70;;;;;;;;;;4994361;28;20191;-83
2020/12/25 00:53:04;;;;;;;21.23;19.53;;;;;;;;;;4995529;28;20179;-84
2020/12/25 00:55:30;;;;;;;20.07;18.20;;;;;;;;;;4995668;28;20198;-84
2020/12/25 00:57:59;;;;;;;19.00;17.57;;;;;;;;;;4995431;28;20192;-84
2020/12/25 01:00:25;;;;;;;20.13;18.73;;;;;;;;;;4995437;28;20178;-83
2020/12/25 01:02:58;;;;;;;19.10;17.50;;;;;;;;;;4994332;28;20178;-84
2020/12/25 01:05:27;;;;;;;18.97;17.60;;;;;;;;;;4993922;28;20199;-83
2020/12/25 01:07:53;;;;;;;18.97;17.23;;;;;;;;;;4995543;28;20159;-84
2020/12/25 01:10:27;;;;;;;20.00;18.23;;;;;;;;;;4994037;28;20206;-84
2020/12/25 01:12:53;;;;;;;19.90;18.30;;;;;;;;;;4995471;28;20173;-84
2020/12/25 01:15:20;;;;;;;19.43;17.87;;;;;;;;;;4993801;28;20194;-84
2020/12/25 01:17:46;;;;;;;20.67;18.83;;;;;;;;;;4995299;28;20175;-83
2020/12/25 01:20:16;;;;;;;19.30;17.77;;;;;;;;;;4995612;28;20247;-82
2020/12/25 01:22:42;;;;;;;20.83;19.13;;;;;;;;;;4995066;28;20176;-82
2020/12/25 01:25:11;;;;;;;20.07;18.77;;;;;;;;;;4995477;28;20199;-82
2020/12/25 01:27:38;;;;;;;20.27;18.70;;;;;;;;;;4995619;28;20195;-84
2020/12/25 01:30:06;;;;;;;18.80;17.47;;;;;;;;;;4995344;28;20249;-84
2020/12/25 01:32:34;;;;;;;18.20;16.80;;;;;;;;;;4993756;28;20178;-84
2020/12/25 01:35:05;;;;;;;19.07;17.20;;;;;;;;;;4994704;28;20213;-84
2020/12/25 01:37:33;;;;;;;18.27;16.80;;;;;;;;;;4993631;28;20178;-84
2020/12/25 01:40:02;;;;;;;18.00;16.60;;;;;;;;;;4993483;28;20185;-83
2020/12/25 01:42:31;;;;;;;18.30;17.10;;;;;;;;;;4994554;28;20176;-84
2020/12/25 01:45:01;;;;;;;19.33;17.60;;;;;;;;;;4994361;28;20225;-84
2020/12/25 01:47:32;;;;;;;18.83;17.33;;;;;;;;;;4994527;28;20298;-84
2020/12/25 01:50:00;;;;;;;19.70;17.97;;;;;;;;;;4994383;28;20175;-85
2020/12/25 01:52:32;;;;;;;19.03;17.33;;;;;;;;;;4994547;28;20171;-84
2020/12/25 01:55:01;;;;;;;19.70;18.30;;;;;;;;;;4994183;28;20191;-84
2020/12/25 01:57:32;;;;;;;19.10;17.47;;;;;;;;;;4992958;28;20205;-84
2020/12/25 02:00:01;;;;;;;20.10;18.47;;;;;;;;;;4994511;28;20214;-84
2020/12/25 02:02:33;;;;;;;20.57;18.97;;;;;;;;;;4994867;28;20269;-84
2020/12/25 02:05:05;;;;;;;20.70;18.87;;;;;;;;;;4994056;28;20682;-84
2020/12/25 02:07:37;;;;;;;19.80;18.40;;;;;;;;;;4994132;28;20179;-84
2020/12/25 02:10:08;;;;;;;21.13;19.30;;;;;;;;;;4993116;28;20174;-83
2020/12/25 02:12:35;;;;;;;20.37;18.87;;;;;;;;;;4992845;28;20206;-84
2020/12/25 02:15:09;;;;;;;20.93;19.60;;;;;;;;;;4993932;28;20635;-84
2020/12/25 02:17:46;;;;;;;21.87;20.07;;;;;;;;;;4992843;28;20176;-84
2020/12/25 02:20:15;;;;;;;21.73;19.90;;;;;;;;;;4994406;28;20184;-83
2020/12/25 02:22:46;;;;;;;20.33;19.03;;;;;;;;;;4992730;28;20209;-84
2020/12/25 02:25:20;;;;;;;19.43;17.93;;;;;;;;;;4992513;28;20206;-83
2020/12/25 02:27:47;;;;;;;22.10;18.53;;;;;;;;;;4994021;28;20250;-84
2020/12/25 02:30:16;;;;;;;19.73;17.97;;;;;;;;;;4994077;28;20172;-83
2020/12/25 02:32:47;;;;;;;18.77;17.27;;;;;;;;;;4992753;28;20532;-83
2020/12/25 02:35:16;;;;;;;18.90;17.47;;;;;;;;;;4998550;28;20317;-84
2020/12/25 02:37:49;;;;;;;19.17;17.33;;;;;;;;;;5000299;28;20744;-84
2020/12/25 02:40:25;;;;;;;18.87;17.47;;;;;;;;;;5000480;28;20728;-84
2020/12/25 02:42:59;;;;;;;18.43;17.23;;;;;;;;;;5000353;28;20685;-84
2020/12/25 02:45:35;;;;;;;20.33;18.50;;;;;;;;;;5000338;28;20205;-84
2020/12/25 02:48:04;;;;;;;19.60;17.93;;;;;;;;;;5000317;28;20257;-83
2020/12/25 02:50:30;;;;;;;18.57;17.27;;;;;;;;;;5000291;28;20181;-83
2020/12/25 02:52:57;;;;;;;20.67;18.70;;;;;;;;;;5000053;28;20308;-83
2020/12/25 02:55:31;;;;;;;18.87;17.00;;;;;;;;;;5000140;28;20198;-83
2020/12/25 02:58:03;;;;;;;17.87;16.53;;;;;;;;;;5000501;28;20162;-83
2020/12/25 03:00:32;;;;;;;18.00;16.37;;;;;;;;;;5000140;28;20677;-84
2020/12/25 03:03:04;;;;;;;17.07;15.70;;;;;;;;;;5000119;28;20176;-83
2020/12/25 03:05:34;;;;;;;21.43;18.40;;;;;;;;;;5000306;28;20202;-84
2020/12/25 03:08:04;;;;;;;20.30;18.30;;;;;;;;;;4999998;28;20174;-84
2020/12/25 03:10:39;;;;;;;20.00;18.50;;;;;;;;;;4998833;28;20174;-84
2020/12/25 03:13:11;;;;;;;19.07;17.57;;;;;;;;;;4998896;28;20262;-84
2020/12/25 03:15:41;;;;;;;20.37;18.90;;;;;;;;;;4998549;28;20193;-84
2020/12/25 03:18:07;;;;;;;20.20;18.90;;;;;;;;;;5000139;28;20673;-84
2020/12/25 03:20:41;;;;;;;20.43;18.93;;;;;;;;;;5000355;28;20193;-83
2020/12/25 03:23:14;;;;;;;18.30;17.00;;;;;;;;;;5000149;28;20212;-83
2020/12/25 03:25:45;;;;;;;19.47;17.83;;;;;;;;;;5000248;28;20280;-83
2020/12/25 03:28:16;;;;;;;19.50;18.00;;;;;;;;;;5000244;28;20555;-84
2020/12/25 03:30:42;;;;;;;19.20;17.53;;;;;;;;;;4998997;28;20173;-83
2020/12/25 03:33:13;;;;;;;21.33;19.17;;;;;;;;;;5000076;28;20178;-84
2020/12/25 03:35:45;;;;;;;19.70;17.93;;;;;;;;;;4999841;28;20209;-84
2020/12/25 03:38:11;;;;;;;19.03;17.40;;;;;;;;;;4999126;28;20183;-83
2020/12/25 03:40:44;;;;;;;19.57;17.90;;;;;;;;;;4999895;28;20174;-83
2020/12/25 03:43:10;;;;;;;19.07;17.13;;;;;;;;;;5000513;28;20183;-83
2020/12/25 03:45:46;;;;;;;19.03;17.77;;;;;;;;;;4997030;28;20205;-84
2020/12/25 03:48:13;;;;;;;20.30;19.03;;;;;;;;;;4996898;28;20650;-83
2020/12/25 03:50:43;;;;;;;20.33;18.73;;;;;;;;;;4995558;28;20182;-83
2020/12/25 03:53:17;;;;;;;19.37;17.90;;;;;;;;;;4996825;28;20194;-83
2020/12/25 03:55:49;;;;;;;19.00;17.60;;;;;;;;;;4995399;28;20198;-83
2020/12/25 03:58:15;;;;;;;19.03;17.67;;;;;;;;;;4996749;28;20174;-83
2020/12/25 04:00:46;;;;;;;20.07;18.50;;;;;;;;;;4996535;28;20284;-84
2020/12/25 04:03:16;;;;;;;20.20;18.43;;;;;;;;;;4995278;28;20393;-83
2020/12/25 04:05:46;;;;;;;18.53;17.27;;;;;;;;;;4996252;28;20210;-83
2020/12/25 04:08:15;;;;;;;18.03;16.57;;;;;;;;;;4996326;28;20166;-83
2020/12/25 04:10:49;;;;;;;19.70;17.83;;;;;;;;;;4996330;28;20257;-83
2020/12/25 04:13:21;;;;;;;19.47;17.63;;;;;;;;;;4996557;28;20170;-83
2020/12/25 04:15:52;;;;;;;16.57;15.23;;;;;;;;;;4996392;28;20178;-83
2020/12/25 04:18:25;;;;;;;17.10;15.90;;;;;;;;;;4996578;28;20182;-83
2020/12/25 04:20:55;;;;;;;18.40;17.10;;;;;;;;;;4996475;28;20588;-83
2020/12/25 04:23:21;;;;;;;18.50;16.73;;;;;;;;;;4996097;28;20174;-83
2020/12/25 04:25:48;;;;;;;18.23;16.93;;;;;;;;;;4996146;28;20299;-83
2020/12/25 04:28:18;;;;;;;18.13;16.83;;;;;;;;;;4994748;28;20173;-83
2020/12/25 04:30:45;;;;;;;18.97;17.43;;;;;;;;;;4994665;28;20255;-83
2020/12/25 04:33:11;;;;;;;19.17;17.77;;;;;;;;;;4996056;28;20662;-83
2020/12/25 04:35:43;;;;;;;18.60;16.87;;;;;;;;;;5082635;23;20237;-85
2020/12/25 04:38:09;;;;;;;18.10;16.57;;;;;;;;;;4994444;28;20309;-85
2020/12/25 04:40:37;;;;;;;19.03;17.03;;;;;;;;;;4995759;28;20174;-86
2020/12/25 04:43:10;;;;;;;18.37;16.80;;;;;;;;;;4995995;28;20171;-86
2020/12/25 04:45:41;;;;;;;18.03;16.53;;;;;;;;;;4994179;28;20201;-86
2020/12/25 04:48:08;;;;;;;18.07;16.67;;;;;;;;;;4994241;28;20210;-86
2020/12/25 04:50:39;;;;;;;19.07;17.30;;;;;;;;;;4995540;28;20198;-86
2020/12/25 04:53:10;;;;;;;18.40;16.80;;;;;;;;;;4995502;28;20207;-86
2020/12/25 04:55:38;;;;;;;17.17;15.87;;;;;;;;;;4993989;28;20217;-86
2020/12/25 04:58:04;;;;;;;17.37;16.07;;;;;;;;;;4993470;28;20562;-86
2020/12/25 05:00:37;;;;;;;16.63;15.43;;;;;;;;;;4994197;28;20182;-86
2020/12/25 05:03:08;;;;;;;18.40;16.90;;;;;;;;;;4994118;28;20209;-86
2020/12/25 05:05:42;;;;;;;19.00;17.30;;;;;;;;;;4993768;28;20198;-86
2020/12/25 05:08:08;;;;;;;19.10;17.60;;;;;;;;;;4994199;28;20237;-86
2020/12/25 05:10:34;;;;;;;18.53;17.40;;;;;;;;;;4993922;28;20205;-86
2020/12/25 05:13:11;;;;;;;18.80;17.30;;;;;;;;;;4994027;28;20228;-86
2020/12/25 05:15:40;;;;;;;19.13;17.73;;;;;;;;;;4993711;28;20674;-86
2020/12/25 05:18:07;;;;;;;20.10;18.80;;;;;;;;;;4995123;28;20670;-86
2020/12/25 05:20:41;;;;;;;20.70;19.20;;;;;;;;;;4993756;28;20232;-86
2020/12/25 05:23:15;;;;;;;20.30;18.87;;;;;;;;;;4994076;28;20177;-86
2020/12/25 05:25:49;;;;;;;20.70;19.13;;;;;;;;;;4995179;28;20579;-86
2020/12/25 05:28:17;;;;;;;20.77;19.10;;;;;;;;;;4993580;28;20173;-86
2020/12/25 05:30:44;;;;;;;20.77;18.90;;;;;;;;;;4993742;28;20174;-86
2020/12/25 05:33:21;;;;;;;20.17;18.73;;;;;;;;;;4995045;28;20305;-86
2020/12/25 05:35:55;;;;;;;18.77;17.27;;;;;;;;;;4993213;28;20224;-86
2020/12/25 05:38:27;;;;;;;18.03;16.83;;;;;;;;;;4993236;28;20209;-86
2020/12/25 05:40:59;;;;;;;19.47;17.70;;;;;;;;;;4993327;28;20178;-86
2020/12/25 05:43:33;;;;;;;18.20;16.63;;;;;;;;;;4993185;28;20625;-86
2020/12/25 05:46:07;;;;;;;19.20;17.40;;;;;;;;;;4993201;28;20750;-86
2020/12/25 05:48:33;;;;;;;18.50;16.83;;;;;;;;;;4994900;28;20163;-86
2020/12/25 05:51:06;;;;;;;18.50;17.00;;;;;;;;;;4994523;28;20172;-86
2020/12/25 05:53:40;;;;;;;18.20;16.90;;;;;;;;;;4993354;28;20556;-86
2020/12/25 05:56:11;;;;;;;16.83;15.73;;;;;;;;;;4993118;28;20577;-86
2020/12/25 05:58:46;;;;;;;18.33;17.00;;;;;;;;;;4994651;28;20608;-86
2020/12/25 06:01:14;;;;;;;18.80;17.50;;;;;;;;;;4994308;28;20173;-86
2020/12/25 06:03:51;;;;;;;19.33;17.43;;;;;;;;;;4994158;28;20177;-86
2020/12/25 06:06:24;;;;;;;19.60;18.00;;;;;;;;;;4992974;28;20213;-86
2020/12/25 06:09:00;;;;;;;21.60;19.80;;;;;;;;;;4993345;28;20162;-86
2020/12/25 06:11:34;;;;;;;19.27;17.97;;;;;;;;;;4992984;28;20173;-86
2020/12/25 06:14:08;;;;;;;20.30;18.80;;;;;;;;;;4994224;28;20166;-86
2020/12/25 06:16:42;;;;;;;21.03;18.90;;;;;;;;;;4992864;28;20637;-86
2020/12/25 06:19:20;;;;;;;20.77;19.03;;;;;;;;;;4992949;28;20639;-86
2020/12/25 06:22:00;;;;;;;21.30;19.57;;;;;;;;;;4992939;28;20658;-86
2020/12/25 06:24:37;;;;;;;23.80;20.70;;;;;;;;;;4993967;28;20706;-86
2020/12/25 06:27:08;;;;;;;20.43;18.83;;;;;;;;;;4993977;28;20193;-86
2020/12/25 06:29:35;;;;;;;21.37;19.70;;;;;;;;;;4993948;28;20174;-86
2020/12/25 06:32:11;;;;;;;21.73;19.80;;;;;;;;;;4993986;28;20181;-86
2020/12/25 06:34:44;;;;;;;21.27;19.37;;;;;;;;;;4992367;28;20300;-86
2020/12/25 06:37:19;;;;;;;20.90;18.77;;;;;;;;;;4993954;28;20178;-86
2020/12/25 06:39:53;;;;;;;23.50;18.87;;;;;;;;;;4992599;28;20231;-86
2020/12/25 06:42:30;;;;;;;21.30;19.43;;;;;;;;;;4992704;28;20200;-86
2020/12/25 06:44:59;;;;;;;20.10;18.23;;;;;;;;;;4993860;28;20693;-86
2020/12/25 06:47:40;;;;;;;21.23;19.17;;;;;;;;;;4993929;28;20178;-86
2020/12/25 06:50:15;;;;;;;20.70;18.83;;;;;;;;;;4992515;28;20554;-86
2020/12/25 06:53:01;;;;;;;20.33;18.30;;;;;;;;;;4993613;28;20251;-86
2020/12/25 06:55:41;;;;;;;18.93;17.53;;;;;;;;;;4992663;28;20201;-86
2020/12/25 06:58:08;;;;;;;20.40;18.37;;;;;;;;;;4993925;28;20170;-86
2020/12/25 07:00:41;;;;;;;18.70;17.07;;;;;;;;;;4992445;28;20186;-86
2020/12/25 07:03:21;;;;;;;18.20;16.93;;;;;;;;;;4992462;28;20170;-86
2020/12/25 07:05:52;;;;;;;18.67;17.10;;;;;;;;;;4992182;28;20653;-86
2020/12/25 07:08:31;;;;;;;19.00;17.37;;;;;;;;;;4993701;28;20204;-86
2020/12/25 07:11:04;;;;;;;18.33;16.80;;;;;;;;;;4992761;28;20315;-86
2020/12/25 07:13:34;;;;;;;21.87;17.20;;;;;;;;;;4993684;28;20176;-86
2020/12/25 07:16:08;;;;;;;17.17;15.97;;;;;;;;;;4992161;28;20229;-86
2020/12/25 07:18:41;;;;;;;17.23;15.87;;;;;;;;;;4992340;28;20605;-86
2020/12/25 07:21:11;;;;;;;15.83;14.17;;;;;;;;;;4995228;28;20185;-86
2020/12/25 07:23:46;;;;;;;17.20;15.77;;;;;;;;;;4995937;28;20286;-86
2020/12/25 07:26:15;;;;;;;17.33;15.60;;;;;;;;;;4996234;28;20661;-86
2020/12/25 07:28:46;;;;;;;15.73;14.63;;;;;;;;;;4997181;28;20176;-86
2020/12/25 07:31:20;;;;;;;15.70;14.50;;;;;;;;;;4995947;28;20255;-86
2020/12/25 07:33:58;;;;;;;17.17;15.43;;;;;;;;;;4995977;28;20212;-86
2020/12/25 07:36:30;;;;;;;14.30;13.20;;;;;;;;;;4995685;28;20286;-86
2020/12/25 07:39:00;;;;;;;16.47;15.03;;;;;;;;;;4997166;28;20174;-86
2020/12/25 07:41:31;;;;;;;16.23;14.87;;;;;;;;;;4995905;28;20190;-86
2020/12/25 07:44:04;;;;;;;16.27;14.67;;;;;;;;;;4995582;28;20204;-86
2020/12/25 07:46:39;;;;;;;14.53;13.47;;;;;;;;;;4995330;28;20236;-86
2020/12/25 07:49:13;;;;;;;23.40;14.23;;;;;;;;;;4996358;28;20174;-86
2020/12/25 07:51:45;;;;;;;17.47;14.37;;;;;;;;;;4996708;28;20634;-86
2020/12/25 07:54:19;;;;;;;13.80;12.80;;;;;;;;;;4996735;28;20182;-86
2020/12/25 07:56:54;;;;;;;15.17;13.93;;;;;;;;;;4995317;28;20189;-86
2020/12/25 07:59:21;;;;;;;15.00;13.77;;;;;;;;;;4995332;28;20185;-86
2020/12/25 08:01:54;;;;;;;14.83;13.63;;;;;;;;;;4995369;28;20231;-86
2020/12/25 08:04:22;;;;;;;15.43;14.13;;;;;;;;;;4996753;28;20201;-86
2020/12/25 08:06:54;;;;;;;14.10;12.63;;;;;;;;;;4995231;28;20214;-86
2020/12/25 08:09:26;;;;;;;16.40;14.90;;;;;;;;;;4996428;28;20173;-86
2020/12/25 08:11:58;;;;;;;14.30;13.20;;;;;;;;;;4996361;28;20188;-86
2020/12/25 08:14:29;;;;;;;15.63;14.43;;;;;;;;;;4996236;28;20648;-86
2020/12/25 08:17:04;;;;;;;15.77;14.63;;;;;;;;;;4996294;28;20180;-86
2020/12/25 08:19:36;;;;;;;14.93;13.77;;;;;;;;;;4995276;28;20178;-86
2020/12/25 08:22:08;;;;;;;15.53;14.00;;;;;;;;;;4994931;28;20313;-86
2020/12/25 08:24:37;;;;;;;16.63;15.17;;;;;;;;;;4994849;28;20567;-86
2020/12/25 08:27:09;;;;;;;15.23;13.90;;;;;;;;;;4994725;28;20295;-86
2020/12/25 08:29:41;;;;;;;14.33;13.27;;;;;;;;;;4995965;28;20180;-86
2020/12/25 08:32:14;;;;;;;15.43;14.27;;;;;;;;;;4995229;28;20532;-86
2020/12/25 08:34:49;;;;;;;14.40;13.30;;;;;;;;;;4994854;28;20290;-87
2020/12/25 08:37:25;;;;;;;16.07;14.50;;;;;;;;;;4994700;28;20293;-86
2020/12/25 08:39:57;;;;;;;15.40;14.27;;;;;;;;;;4994737;28;20180;-86
2020/12/25 08:42:29;;;;;;;15.50;14.10;;;;;;;;;;4994461;28;20205;-86
2020/12/25 08:45:01;;;;;;;15.17;13.87;;;;;;;;;;4994643;28;20233;-86
2020/12/25 08:47:31;;;;;;;15.60;14.20;;;;;;;;;;4995618;28;20186;-86
2020/12/25 08:49:58;;;;;;;15.57;14.27;;;;;;;;;;4995668;28;20179;-86
2020/12/25 08:52:27;;;;;;;14.40;13.40;;;;;;;;;;4994629;28;20197;-86
2020/12/25 08:54:57;;;;;;;16.53;14.83;;;;;;;;;;4994257;28;20253;-86
2020/12/25 08:57:31;;;;;;;15.87;14.67;;;;;;;;;;4994316;28;20197;-84
2020/12/25 09:00:15;;;;;;;15.70;13.40;;;;;;;;;;4994437;28;20237;-86
2020/12/25 09:02:45;;;;;;;15.77;14.53;;;;;;;;;;4995519;28;20206;-86
2020/12/25 09:05:19;;;;;;;15.20;14.00;;;;;;;;;;4994070;28;20194;-86
2020/12/25 09:07:48;;;;;;;12.83;11.93;;;;;;;;;;4994643;28;20209;-86
2020/12/25 09:10:16;;;;;;;15.17;13.67;;;;;;;;;;4995550;28;20261;-86
2020/12/25 09:12:50;;;;;;;14.27;13.13;;;;;;;;;;4993869;28;20642;-86
2020/12/25 09:15:25;;;;;;;14.30;13.40;;;;;;;;;;4995480;28;20190;-86
2020/12/25 09:17:55;;;;;;;14.60;13.00;;;;;;;;;;4994045;28;20173;-86
2020/12/25 09:20:22;;;;;;;16.40;14.90;;;;;;;;;;4995344;28;20170;-86
2020/12/25 09:22:55;;;;;;;18.03;16.40;;;;;;;;;;4995103;28;20181;-84
2020/12/25 09:25:28;;;;;;;15.67;14.57;;;;;;;;;;4993685;28;20253;-84
2020/12/25 09:27:59;;;;;;;20.33;14.97;;;;;;;;;;4995152;28;20166;-84
2020/12/25 09:30:31;;;;;;;15.87;14.27;;;;;;;;;;4993546;28;20205;-84
2020/12/25 09:33:05;;;;;;;15.73;14.53;;;;;;;;;;4993534;28;20178;-86
2020/12/25 09:35:38;;;;;;;17.10;15.50;;;;;;;;;;4994787;28;20616;-86
2020/12/25 09:38:05;;;;;;;17.40;15.60;;;;;;;;;;4993420;28;20712;-87
2020/12/25 09:40:31;;;;;;;22.77;17.27;;;;;;;;;;4993523;28;20648;-86
2020/12/25 09:43:00;;;;;;;15.97;14.33;;;;;;;;;;4994410;28;20623;-87
2020/12/25 09:45:32;;;;;;;15.90;14.30;;;;;;;;;;4994793;28;20571;-87
2020/12/25 09:47:58;;;;;;;16.43;15.10;;;;;;;;;;4993576;28;20229;-87
2020/12/25 09:50:24;;;;;;;14.70;13.60;;;;;;;;;;4993395;28;20557;-87
2020/12/25 09:52:54;;;;;;;13.60;12.50;;;;;;;;;;4994855;28;20181;-87
2020/12/25 09:55:23;;;;;;;15.23;13.80;;;;;;;;;;4993187;28;20203;-87
2020/12/25 09:57:50;;;;;;;14.50;13.43;;;;;;;;;;4993080;28;20206;-87
2020/12/25 10:00:19;;;;;;;14.33;13.27;;;;;;;;;;4993181;28;20193;-87
2020/12/25 10:02:46;;;;;;;14.70;13.80;;;;;;;;;;4993243;28;20255;-88
2020/12/25 10:05:13;;;;;;;15.77;14.50;;;;;;;;;;4992870;28;20212;-88
2020/12/25 10:07:40;;;;;;;17.50;16.20;;;;;;;;;;4993042;28;20176;-87
2020/12/25 10:10:09;;;;;;;16.13;15.07;;;;;;;;;;4994245;28;20176;-87
2020/12/25 10:12:35;;;;;;;18.67;17.40;;;;;;;;;;4993097;28;20261;-86
2020/12/25 10:15:05;;;;;;;16.93;15.40;;;;;;;;;;4992765;28;20280;-85
2020/12/25 10:17:35;;;;;;;15.97;14.80;;;;;;;;;;4992899;28;20276;-85
2020/12/25 10:20:05;;;;;;;13.47;12.40;;;;;;;;;;4992649;28;20194;-85
2020/12/25 10:22:31;;;;;;;11.87;11.00;;;;;;;;;;4994021;28;20177;-87
2020/12/25 10:24:57;;;;;;;14.37;13.03;;;;;;;;;;4994086;28;20203;-86
2020/12/25 10:27:24;;;;;;;13.70;12.40;;;;;;;;;;4993800;28;20373;-86
2020/12/25 10:29:50;;;;;;;16.57;15.40;;;;;;;;;;4993990;28;20216;-86
2020/12/25 10:32:17;;;;;;;19.00;17.50;;;;;;;;;;4992547;28;20178;-85
2020/12/25 10:34:43;;;;;;;18.10;16.83;;;;;;;;;;4992526;28;20300;-84
2020/12/25 10:37:09;;;;;;;20.43;18.40;;;;;;;;;;4992485;28;20204;-85
2020/12/25 10:39:37;;;;;;;17.57;16.30;;;;;;;;;;4992864;28;20234;-84
2020/12/25 10:42:06;;;;;;;19.40;17.97;;;;;;;;;;4993830;28;20647;-85
2020/12/25 10:44:32;;;;;;;19.87;18.47;;;;;;;;;;4994046;28;20207;-85
2020/12/25 10:46:59;;;;;;;21.97;19.90;;;;;;;;;;4992381;28;20209;-86
2020/12/25 10:49:25;;;;;;;19.17;17.77;;;;;;;;;;4992525;28;20208;-86
2020/12/25 10:51:51;;;;;;;21.87;20.37;;;;;;;;;;4992368;28;20701;-86
2020/12/25 10:54:17;;;;;;;17.93;16.53;;;;;;;;;;4992224;28;20245;-86
2020/12/25 10:56:43;;;;;;;19.90;18.50;;;;;;;;;;4995587;28;20643;-86
2020/12/25 10:59:09;;;;;;;18.80;17.50;;;;;;;;;;4996284;28;20635;-86
2020/12/25 11:01:36;;;;;;;18.03;16.30;;;;;;;;;;4996250;28;20287;-86
2020/12/25 11:04:02;;;;;;;16.63;15.03;;;;;;;;;;4997679;28;20186;-86
2020/12/25 11:06:35;;;;;;;19.83;18.50;;;;;;;;;;4997299;28;20264;-84
2020/12/25 11:09:01;;;;;;;14.47;13.37;;;;;;;;;;4996149;28;20187;-84
2020/12/25 11:11:28;;;;;;;16.90;15.80;;;;;;;;;;4996047;28;20179;-84
2020/12/25 11:13:54;;;;;;;16.40;14.90;;;;;;;;;;4995927;28;20174;-86
2020/12/25 11:16:21;;;;;;;13.53;12.53;;;;;;;;;;4995854;28;20213;-86
2020/12/25 11:18:47;;;;;;;14.93;13.90;;;;;;;;;;4995989;28;20182;-86
2020/12/25 11:21:23;;;;;;;13.80;12.80;;;;;;;;;;4997443;28;20205;-86
2020/12/25 11:23:50;;;;;;;14.13;12.20;;;;;;;;;;4997047;28;20184;-86
2020/12/25 11:26:24;;;;;;;9.03;8.10;;;;;;;;;;4995690;28;20272;-86
2020/12/25 11:28:51;;;;;;;9.50;8.83;;;;;;;;;;4996958;28;20176;-86
2020/12/25 11:31:18;;;;;;;11.30;10.50;;;;;;;;;;4995753;28;20184;-87
2020/12/25 11:33:44;;;;;;;12.77;11.67;;;;;;;;;;4995787;28;20176;-86
2020/12/25 11:36:17;;;;;;;11.87;10.73;;;;;;;;;;4995606;28;20225;-87
2020/12/25 11:38:43;;;;;;;10.37;9.10;;;;;;;;;;4997347;28;20172;-86
2020/12/25 11:41:11;;;;;;;10.80;9.20;;;;;;;;;;4995510;28;20638;-87
2020/12/25 11:43:38;;;;;;;10.20;9.17;;;;;;;;;;4996765;28;20189;-87
2020/12/25 11:46:04;;;;;;;7.73;7.07;;;;;;;;;;4996574;28;20263;-88
2020/12/25 11:48:30;;;;;;;6.77;6.23;;;;;;;;;;4995693;28;20185;-86
2020/12/25 11:50:57;;;;;;;9.33;8.73;;;;;;;;;;4996576;28;20172;-84
2020/12/25 11:53:23;;;;;;;10.97;10.13;;;;;;;;;;4995255;28;20185;-83
2020/12/25 11:55:50;;;;;;;9.87;8.93;;;;;;;;;;4995221;28;20245;-84
2020/12/25 11:58:16;;;;;;;13.60;12.70;;;;;;;;;;4995167;28;20181;-84
2020/12/25 12:00:42;;;;;;;10.30;9.60;;;;;;;;;;4996535;28;20206;-84
2020/12/25 12:03:08;;;;;;;10.50;9.73;;;;;;;;;;4995171;28;20181;-84
2020/12/25 12:05:34;;;;;;;9.20;8.50;;;;;;;;;;4995026;28;20247;-84
2020/12/25 12:08:01;;;;;;;10.73;9.90;;;;;;;;;;5094215;23;20229;-87
2020/12/25 12:10:35;;;;;;;10.60;9.73;;;;;;;;;;4995119;28;20184;-88
2020/12/25 12:13:05;;;;;;;9.03;8.27;;;;;;;;;;4995229;28;20224;-88
2020/12/25 12:15:41;;;;;;;8.00;7.50;;;;;;;;;;4995446;28;20205;-88
2020/12/25 12:18:11;;;;;;;9.67;8.97;;;;;;;;;;4997423;28;20223;-89
2020/12/25 12:20:37;;;;;;;11.20;10.03;;;;;;;;;;4996981;28;20178;-89
2020/12/25 12:23:08;;;;;;;9.63;8.93;;;;;;;;;;4997626;28;20223;-88
2020/12/25 12:25:39;;;;;;;11.37;10.67;;;;;;;;;;4995972;28;20202;-89
2020/12/25 12:28:08;;;;;;;8.33;7.83;;;;;;;;;;4995286;28;20270;-88
2020/12/25 12:30:37;;;;;;;9.27;8.57;;;;;;;;;;4995305;28;20170;-89
2020/12/25 12:33:05;;;;;;;7.47;6.80;;;;;;;;;;4995091;28;20197;-87
2020/12/25 12:35:31;;;;;;;8.03;7.17;;;;;;;;;;4995585;28;20277;-88
2020/12/25 12:38:05;;;;;;;9.37;8.23;;;;;;;;;;4995328;28;20207;-88
2020/12/25 12:40:33;;;;;;;7.57;6.37;;;;;;;;;;4995031;28;20689;-88
2020/12/25 12:43:03;;;;;;;7.10;5.90;;;;;;;;;;4994841;28;20257;-89
2020/12/25 12:45:30;;;;;;;6.37;5.87;;;;;;;;;;4995147;28;20194;-89
2020/12/25 12:47:56;;;;;;;6.93;5.40;;;;;;;;;;4994725;28;20194;-88
2020/12/25 12:50:25;;;;;;;5.43;4.73;;;;;;;;;;4995011;28;20587;-89
2020/12/25 12:52:58;;;;;;;7.43;5.57;;;;;;;;;;4994949;28;20202;-88
2020/12/25 12:55:28;;;;;;;7.20;5.33;;;;;;;;;;4994292;28;20174;-88
2020/12/25 12:58:00;;;;;;;5.17;4.70;;;;;;;;;;4994777;28;20198;-88
2020/12/25 13:00:35;;;;;;;4.27;3.67;;;;;;;;;;4995894;28;20596;-88
2020/12/25 13:03:08;;;;;;;5.43;5.03;;;;;;;;;;4996082;28;20207;-89
2020/12/25 13:05:41;;;;;;;7.87;4.80;;;;;;;;;;4993906;28;20207;-88
2020/12/25 13:08:12;;;;;;;5.90;5.13;;;;;;;;;;4994203;28;20210;-88
2020/12/25 13:10:45;;;;;;;5.90;5.27;;;;;;;;;;4994374;28;20178;-88
2020/12/25 13:13:19;;;;;;;5.60;5.10;;;;;;;;;;4994492;28;20206;-88
2020/12/25 13:15:50;;;;;;;5.83;5.37;;;;;;;;;;4994586;28;20179;-88
2020/12/25 13:18:24;;;;;;;6.63;4.83;;;;;;;;;;4993468;28;20198;-88
2020/12/25 13:20:59;;;;;;;7.23;5.73;;;;;;;;;;4994266;28;20178;-88
2020/12/25 13:23:31;;;;;;;6.13;5.30;;;;;;;;;;4993838;28;20209;-88
2020/12/25 13:26:02;;;;;;;7.47;5.37;;;;;;;;;;4993803;28;20199;-88
2020/12/25 13:28:36;;;;;;;8.33;5.40;;;;;;;;;;4994074;28;20229;-88
2020/12/25 13:31:06;;;;;;;5.60;5.03;;;;;;;;;;4993860;28;20639;-88
2020/12/25 13:33:37;;;;;;;7.03;4.77;;;;;;;;;;4993766;28;20184;-88
2020/12/25 13:36:09;;;;;;;6.90;4.80;;;;;;;;;;4994179;28;20650;-88
2020/12/25 13:38:40;;;;;;;5.37;4.87;;;;;;;;;;4994802;28;20195;-88
2020/12/25 13:41:14;;;;;;;5.43;5.00;;;;;;;;;;4993609;28;20178;-88
2020/12/25 13:43:49;;;;;;;7.33;4.80;;;;;;;;;;4994389;28;20179;-88
2020/12/25 13:46:24;;;;;;;6.20;5.17;;;;;;;;;;4994928;28;20204;-88
2020/12/25 13:48:56;;;;;;;8.07;6.27;;;;;;;;;;4993980;28;20590;-88
2020/12/25 13:51:27;;;;;;;6.93;6.00;;;;;;;;;;4995480;28;20554;-88
2020/12/25 13:54:01;;;;;;;9.40;5.33;;;;;;;;;;4993940;28;20177;-88
2020/12/25 13:56:34;;;;;;;7.10;5.53;;;;;;;;;;4993861;28;20229;-88
2020/12/25 13:59:09;;;;;;;6.30;5.80;;;;;;;;;;4993173;28;20193;-88
2020/12/25 14:01:42;;;;;;;5.73;5.30;;;;;;;;;;4993719;28;20251;-88
2020/12/25 14:04:14;;;;;;;7.97;5.53;;;;;;;;;;4993778;28;20202;-88
2020/12/25 14:06:40;;;;;;;6.40;5.80;;;;;;;;;;4994819;28;20205;-87
2020/12/25 14:09:16;;;;;;;7.10;6.37;;;;;;;;;;4993092;28;20241;-87
2020/12/25 14:11:46;;;;;;;8.23;5.87;;;;;;;;;;4993621;28;20180;-87
2020/12/25 14:14:20;;;;;;;11.33;6.10;;;;;;;;;;4992963;28;20197;-88
2020/12/25 14:16:54;;;;;;;7.40;6.00;;;;;;;;;;4993006;28;20178;-88
2020/12/25 14:19:29;;;;;;;8.43;7.23;;;;;;;;;;4992914;28;20197;-88
2020/12/25 14:22:00;;;;;;;7.00;5.37;;;;;;;;;;4993511;28;20179;-88
2020/12/25 14:24:26;;;;;;;7.30;5.50;;;;;;;;;;4994093;28;20712;-90
2020/12/25 14:26:58;;;;;;;6.13;5.13;;;;;;;;;;4992964;28;20251;-89
2020/12/25 14:29:31;;;;;;;8.20;5.50;;;;;;;;;;4992218;28;20197;-88
2020/12/25 14:32:04;;;;;;;7.13;5.53;;;;;;;;;;4992636;28;20172;-88
2020/12/25 14:34:35;;;;;;;5.60;5.10;;;;;;;;;;4993692;28;20165;-88
2020/12/25 14:37:01;;;;;;;6.03;5.43;;;;;;;;;;4992828;28;20264;-91
2020/12/25 14:39:34;;;;;;;7.87;5.43;;;;;;;;;;4993944;28;20234;-88